< < Back
Terminal Aerodrome Forecast


Current Version              Previous Versions:   1  2  3  4  5  6  7  8  9  

Terminal Aerodrome Forecast

922
FTUS42 KILM 291120
TAFILM
TAF
KILM 291120Z 2912/3012 07011KT 6SM -SHRA BKN020
     FM291700 13010G18KT 6SM -SHRA SCT025 BKN050
     FM300000 12004KT 6SM -SHRA SCT010 BKN050=

Latest METAR

349
SAUS70 KWBC 291700 RRH
MTRILM
METAR KILM 291653Z AUTO 16011G23KT 3SM R35/4000VP6000FT +RA BR BKN020
BKN030 OVC050 24/22 A3004 RMK AO2 RAB49 SLP172 P0003
T02440222


USA.gov is the U.S. government's official web portal to all federal, state and local government web resources and services.